createdAt,value
2022-07-26T00:01:56.282Z,21.60
2022-07-26T00:06:13.545Z,21.60
2022-07-26T00:10:30.571Z,21.50
2022-07-26T00:14:47.566Z,21.50
2022-07-26T00:19:05.325Z,21.50
2022-07-26T00:23:22.801Z,21.40
2022-07-26T00:27:39.832Z,21.40
2022-07-26T00:31:57.018Z,21.30
2022-07-26T00:36:14.319Z,21.30
2022-07-26T00:40:31.493Z,21.20
2022-07-26T00:44:48.898Z,21.20
2022-07-26T00:49:06.310Z,21.20
2022-07-26T00:53:23.848Z,21.10
2022-07-26T00:57:41.212Z,21.20
2022-07-26T01:01:58.431Z,21.10
2022-07-26T01:06:15.699Z,20.90
2022-07-26T01:10:32.887Z,20.90
2022-07-26T01:14:49.873Z,21.00
2022-07-26T01:19:06.932Z,20.90
2022-07-26T01:23:23.933Z,20.90
2022-07-26T01:27:40.982Z,21.00
2022-07-26T01:31:57.984Z,20.90
2022-07-26T01:36:15.069Z,20.90
2022-07-26T01:40:32.270Z,20.80
2022-07-26T01:44:49.346Z,20.70
2022-07-26T01:49:08.437Z,20.60
2022-07-26T01:53:25.520Z,20.70
2022-07-26T01:57:44.795Z,20.60
2022-07-26T02:02:01.849Z,20.60
2022-07-26T02:06:18.901Z,20.60
2022-07-26T02:10:55.132Z,20.60
2022-07-26T02:15:15.296Z,20.60
2022-07-26T02:19:32.353Z,20.50
2022-07-26T02:23:49.371Z,20.40
2022-07-26T02:28:06.385Z,20.30
2022-07-26T02:32:23.379Z,20.30
2022-07-26T02:36:40.620Z,20.20
2022-07-26T02:40:57.655Z,20.20
2022-07-26T02:45:14.695Z,20.20
2022-07-26T02:49:31.730Z,20.10
2022-07-26T02:53:48.709Z,20.10
2022-07-26T02:58:05.778Z,20.00
2022-07-26T03:02:22.794Z,20.00
2022-07-26T03:06:39.962Z,19.90
2022-07-26T03:10:56.967Z,19.90
2022-07-26T03:15:14.005Z,19.90
2022-07-26T03:19:31.004Z,20.00
2022-07-26T03:23:48.076Z,20.00
2022-07-26T03:28:05.185Z,20.10
2022-07-26T03:32:22.214Z,20.00
2022-07-26T03:36:39.230Z,20.00
2022-07-26T03:40:56.209Z,19.90
2022-07-26T03:45:13.705Z,19.90
2022-07-26T03:49:30.737Z,19.80
2022-07-26T03:53:47.911Z,19.80
2022-07-26T03:58:04.939Z,19.80
2022-07-26T04:02:22.046Z,19.80
2022-07-26T04:06:39.608Z,19.80
2022-07-26T04:10:56.625Z,19.80
2022-07-26T04:15:13.664Z,19.80
2022-07-26T04:19:30.675Z,19.90
2022-07-26T04:23:51.131Z,20.00
2022-07-26T04:28:09.505Z,19.90
2022-07-26T04:32:26.519Z,19.90
2022-07-26T04:36:43.585Z,19.90
2022-07-26T04:41:00.629Z,19.90
2022-07-26T04:45:17.918Z,20.00
2022-07-26T04:49:34.907Z,19.90
2022-07-26T04:53:51.933Z,19.80
2022-07-26T04:58:09.457Z,19.80
2022-07-26T05:02:26.705Z,19.80
2022-07-26T05:06:43.809Z,19.90
2022-07-26T05:11:00.837Z,19.90
2022-07-26T05:15:17.851Z,20.10
2022-07-26T05:19:34.887Z,20.00
2022-07-26T05:23:51.886Z,19.90
2022-07-26T05:28:09.044Z,20.10
2022-07-26T05:32:26.142Z,20.00
2022-07-26T05:36:43.140Z,20.10
2022-07-26T05:41:00.145Z,20.20
2022-07-26T05:45:17.204Z,20.20
2022-07-26T05:49:40.053Z,20.10
2022-07-26T05:53:57.778Z,20.00
2022-07-26T05:58:14.778Z,20.00
2022-07-26T06:02:31.871Z,19.90
2022-07-26T06:06:49.100Z,19.90
2022-07-26T06:11:06.225Z,20.00
2022-07-26T06:15:23.199Z,20.20
2022-07-26T06:19:43.078Z,20.30
2022-07-26T06:24:04.466Z,20.30
2022-07-26T06:28:21.677Z,20.50
2022-07-26T06:32:38.777Z,20.60
2022-07-26T06:36:56.472Z,20.70
2022-07-26T06:41:13.504Z,21.00
2022-07-26T06:45:30.612Z,21.30
2022-07-26T06:49:47.647Z,21.30
2022-07-26T06:54:05.792Z,21.20
2022-07-26T06:58:23.042Z,21.30
2022-07-26T07:02:40.131Z,21.40
2022-07-26T07:07:02.237Z,21.60
2022-07-26T07:11:22.416Z,21.50
2022-07-26T07:15:39.674Z,21.60
2022-07-26T07:19:56.879Z,21.60
2022-07-26T07:24:13.896Z,21.70
2022-07-26T07:28:33.709Z,21.70
2022-07-26T07:32:51.615Z,22.00
2022-07-26T07:37:08.683Z,22.20
2022-07-26T07:41:29.171Z,22.70
2022-07-26T07:45:48.338Z,22.30
2022-07-26T07:50:06.314Z,22.50
2022-07-26T07:54:23.322Z,23.30
2022-07-26T07:58:42.081Z,23.50
2022-07-26T08:02:59.140Z,23.10
2022-07-26T08:07:16.172Z,22.30
2022-07-26T08:11:33.799Z,23.50
2022-07-26T08:15:51.813Z,24.00
2022-07-26T08:20:12.012Z,23.90
2022-07-26T08:24:33.074Z,24.20
2022-07-26T08:28:58.567Z,24.60
2022-07-26T08:33:17.391Z,24.40
2022-07-26T08:37:34.403Z,25.60
2022-07-26T08:41:51.394Z,24.00
2022-07-26T08:46:08.469Z,24.40
2022-07-26T08:50:26.659Z,26.00
2022-07-26T08:54:44.865Z,27.00
2022-07-26T08:59:05.718Z,26.50
2022-07-26T09:03:26.350Z,25.80
2022-07-26T09:07:45.157Z,26.20
2022-07-26T09:12:20.182Z,27.50
2022-07-26T09:16:39.816Z,27.40
2022-07-26T09:20:57.484Z,27.70
2022-07-26T09:25:21.506Z,27.50
2022-07-26T09:29:48.679Z,27.70
2022-07-26T09:34:06.878Z,27.40
2022-07-26T09:38:24.474Z,27.90
2022-07-26T09:42:54.529Z,27.70
2022-07-26T09:47:11.545Z,26.70
2022-07-26T09:51:34.517Z,28.90
2022-07-26T09:55:51.483Z,28.10
2022-07-26T10:00:08.769Z,27.70
2022-07-26T10:04:26.476Z,28.90
2022-07-26T10:08:43.747Z,27.40
2022-07-26T10:13:02.941Z,25.60
2022-07-26T10:17:31.519Z,28.10
2022-07-26T10:21:49.548Z,28.50
2022-07-26T10:26:08.236Z,29.00
2022-07-26T10:30:34.154Z,28.90
2022-07-26T10:34:52.428Z,26.80
2022-07-26T10:39:14.354Z,26.60
2022-07-26T10:43:41.076Z,28.40
2022-07-26T10:48:18.633Z,30.10
2022-07-26T10:52:35.875Z,29.30
2022-07-26T10:56:52.881Z,29.30
2022-07-26T11:01:10.011Z,29.40
2022-07-26T11:05:31.702Z,27.90
2022-07-26T11:09:48.695Z,27.90
2022-07-26T11:14:06.076Z,27.90
2022-07-26T11:18:25.073Z,29.20
2022-07-26T11:22:42.042Z,30.30
2022-07-26T11:27:02.990Z,29.90
2022-07-26T11:31:21.560Z,30.00
2022-07-26T11:35:50.001Z,26.90
2022-07-26T11:40:07.320Z,27.20
2022-07-26T11:44:24.464Z,27.30
2022-07-26T11:48:51.287Z,29.20
2022-07-26T11:53:20.376Z,29.00
2022-07-26T11:57:37.424Z,29.10
2022-07-26T12:01:54.962Z,27.90
2022-07-26T12:06:13.625Z,27.30
2022-07-26T12:10:30.800Z,27.70
2022-07-26T12:14:57.807Z,30.20
2022-07-26T12:19:17.559Z,29.10
2022-07-26T12:23:48.670Z,28.90
2022-07-26T12:28:07.642Z,28.70
2022-07-26T12:32:31.202Z,28.00
2022-07-26T12:36:48.431Z,28.20
2022-07-26T12:41:05.656Z,28.10
2022-07-26T12:45:24.776Z,27.70
2022-07-26T12:49:41.829Z,27.40
2022-07-26T12:53:58.888Z,28.20
2022-07-26T12:58:15.890Z,27.00
2022-07-26T13:02:32.865Z,28.90
2022-07-26T13:06:49.959Z,28.40
2022-07-26T13:11:06.998Z,27.40
2022-07-26T13:15:24.040Z,27.30
2022-07-26T13:19:53.759Z,27.70
2022-07-26T13:24:11.202Z,27.50
2022-07-26T13:28:30.109Z,27.20
2022-07-26T13:32:47.109Z,27.90
2022-07-26T13:37:08.212Z,30.40
2022-07-26T13:41:25.695Z,29.80
2022-07-26T13:45:43.229Z,27.80
2022-07-26T13:50:00.358Z,27.30
2022-07-26T13:54:18.854Z,28.50
2022-07-26T13:58:35.994Z,28.80
2022-07-26T14:02:55.519Z,27.80
2022-07-26T14:07:12.694Z,27.30
2022-07-26T14:11:29.731Z,26.80
2022-07-26T14:15:46.783Z,26.90
2022-07-26T14:20:04.545Z,26.80
2022-07-26T14:24:21.558Z,26.90
2022-07-26T14:28:38.644Z,27.00
2022-07-26T14:32:55.694Z,27.40
2022-07-26T14:37:41.697Z,29.50
2022-07-26T14:41:49.714Z,30.50
2022-07-26T14:46:06.846Z,28.50
2022-07-26T14:50:25.924Z,28.60
2022-07-26T14:54:43.117Z,27.20
2022-07-26T14:59:00.101Z,29.40
2022-07-26T15:03:17.146Z,27.20
2022-07-26T15:07:34.171Z,26.20
2022-07-26T15:11:51.202Z,26.10
2022-07-26T15:16:08.284Z,26.20
2022-07-26T15:20:25.618Z,26.40
2022-07-26T15:24:42.699Z,26.20
2022-07-26T15:28:59.709Z,26.90
2022-07-26T15:33:18.120Z,26.50
2022-07-26T15:37:35.099Z,25.90
2022-07-26T15:41:52.110Z,25.50
2022-07-26T15:46:10.034Z,26.60
2022-07-26T15:50:27.107Z,26.00
2022-07-26T15:54:44.127Z,25.50
2022-07-26T15:59:01.685Z,24.80
2022-07-26T16:03:18.738Z,24.50
2022-07-26T16:07:35.767Z,24.30
2022-07-26T16:11:52.825Z,25.00
2022-07-26T16:16:10.097Z,25.60
2022-07-26T16:20:27.134Z,25.10
2022-07-26T16:24:44.629Z,25.00
2022-07-26T16:29:01.754Z,24.50
2022-07-26T16:33:18.771Z,24.60
2022-07-26T16:37:35.776Z,24.40
2022-07-26T16:41:52.798Z,24.00
2022-07-26T16:46:10.067Z,23.60
2022-07-26T16:50:28.097Z,23.60
2022-07-26T16:54:45.243Z,23.50
2022-07-26T16:59:02.411Z,22.80
2022-07-26T17:03:19.486Z,23.00
2022-07-26T17:07:36.805Z,23.20
2022-07-26T17:11:53.788Z,23.20
2022-07-26T17:16:10.863Z,23.10
2022-07-26T17:20:28.421Z,22.90
2022-07-26T17:24:45.638Z,23.00
2022-07-26T17:29:02.709Z,22.70
2022-07-26T17:33:19.813Z,22.60
2022-07-26T17:37:36.870Z,22.30
2022-07-26T17:41:54.155Z,22.20
2022-07-26T17:46:11.421Z,22.20
2022-07-26T17:50:37.325Z,22.20
2022-07-26T17:54:57.634Z,22.20
2022-07-26T17:59:14.798Z,22.10
2022-07-26T18:03:32.395Z,22.00
2022-07-26T18:07:49.490Z,22.00
2022-07-26T18:12:06.654Z,22.00
2022-07-26T18:16:23.641Z,21.90
2022-07-26T18:20:41.189Z,21.90
2022-07-26T18:24:58.223Z,21.80
2022-07-26T18:29:16.494Z,21.60
2022-07-26T18:33:33.542Z,21.60
2022-07-26T18:37:52.918Z,21.50
2022-07-26T18:42:09.953Z,21.20
2022-07-26T18:46:27.085Z,21.20
2022-07-26T18:50:44.195Z,21.00
2022-07-26T18:55:02.593Z,20.90
2022-07-26T18:59:19.732Z,20.80
2022-07-26T19:03:36.849Z,20.70
2022-07-26T19:07:53.976Z,20.50
2022-07-26T19:12:10.959Z,20.50
2022-07-26T19:16:28.013Z,20.30
2022-07-26T19:20:45.063Z,20.10
2022-07-26T19:25:02.165Z,19.90
2022-07-26T19:29:19.359Z,19.90
2022-07-26T19:33:36.459Z,19.80
2022-07-26T19:37:53.672Z,19.60
2022-07-26T19:42:10.678Z,19.50
2022-07-26T19:46:27.804Z,19.40
2022-07-26T19:50:44.853Z,19.30
2022-07-26T19:55:01.858Z,19.10
2022-07-26T19:59:23.452Z,19.10
2022-07-26T20:03:41.241Z,19.00
2022-07-26T20:07:58.280Z,18.90
2022-07-26T20:12:15.455Z,18.70
2022-07-26T20:16:32.555Z,18.70
2022-07-26T20:20:49.683Z,18.80
2022-07-26T20:25:07.059Z,18.80
2022-07-26T20:29:24.118Z,18.90
2022-07-26T20:33:41.196Z,18.90
2022-07-26T20:37:58.193Z,18.90
2022-07-26T20:42:21.448Z,18.90
2022-07-26T20:46:42.108Z,18.80
2022-07-26T20:50:59.115Z,18.70
2022-07-26T20:55:18.807Z,18.70
2022-07-26T20:59:35.881Z,18.80
2022-07-26T21:03:52.903Z,18.90
2022-07-26T21:08:09.933Z,19.10
2022-07-26T21:12:26.939Z,19.10
2022-07-26T21:16:43.971Z,19.20
2022-07-26T21:21:01.679Z,19.20
2022-07-26T21:25:18.707Z,19.20
2022-07-26T21:29:38.076Z,19.30
2022-07-26T21:33:56.676Z,19.30
2022-07-26T21:38:13.713Z,19.30
2022-07-26T21:42:30.706Z,19.30
2022-07-26T21:46:49.659Z,19.30
2022-07-26T21:51:06.851Z,19.30
2022-07-26T21:55:23.893Z,19.40
2022-07-26T21:59:40.879Z,19.30
2022-07-26T22:03:57.862Z,19.20
2022-07-26T22:08:15.164Z,19.20
2022-07-26T22:12:32.436Z,19.10
2022-07-26T22:16:49.640Z,19.00
2022-07-26T22:21:06.725Z,18.90
2022-07-26T22:25:23.739Z,18.90
2022-07-26T22:29:40.767Z,18.70
2022-07-26T22:33:57.757Z,18.50
2022-07-26T22:38:15.205Z,18.50
2022-07-26T22:42:32.506Z,18.40
2022-07-26T22:46:49.501Z,18.30
2022-07-26T22:51:06.497Z,18.20
2022-07-26T22:55:23.755Z,18.00
2022-07-26T22:59:40.810Z,17.80
2022-07-26T23:03:58.135Z,17.60
2022-07-26T23:12:53.994Z,17.50
2022-07-26T23:17:11.001Z,17.30
2022-07-26T23:21:28.032Z,17.20
2022-07-26T23:25:45.017Z,17.20
2022-07-26T23:30:04.779Z,17.30
2022-07-26T23:34:21.971Z,17.40
2022-07-26T23:38:38.957Z,17.30
2022-07-26T23:42:56.251Z,17.40
2022-07-26T23:47:13.334Z,17.30
2022-07-26T23:51:30.733Z,17.30
2022-07-26T23:55:49.186Z,17.40
